createdAt,value
2023-06-07T00:00:40.639Z,24.62
2023-06-07T00:01:40.677Z,24.62
2023-06-07T00:02:44.210Z,24.62
2023-06-07T00:03:40.804Z,24.61
2023-06-07T00:04:40.741Z,24.62
2023-06-07T00:05:40.679Z,24.62
2023-06-07T00:06:40.665Z,24.61
2023-06-07T00:07:40.718Z,24.61
2023-06-07T00:08:40.656Z,24.61
2023-06-07T00:09:40.682Z,24.61
2023-06-07T00:10:40.688Z,24.61
2023-06-07T00:11:40.679Z,24.61
2023-06-07T00:12:40.678Z,24.61
2023-06-07T00:13:40.693Z,24.61
2023-06-07T00:14:40.695Z,24.61
2023-06-07T00:15:40.713Z,24.60
2023-06-07T00:16:40.695Z,24.60
2023-06-07T00:17:40.704Z,24.60
2023-06-07T00:18:40.714Z,24.61
2023-06-07T00:19:40.679Z,24.60
2023-06-07T00:20:40.697Z,24.60
2023-06-07T00:21:40.680Z,24.60
2023-06-07T00:22:40.693Z,24.60
2023-06-07T00:23:40.703Z,24.60
2023-06-07T00:24:40.737Z,24.60
2023-06-07T00:25:40.709Z,24.60
2023-06-07T00:26:40.713Z,24.61
2023-06-07T00:27:40.719Z,24.60
2023-06-07T00:28:40.715Z,24.59
2023-06-07T00:29:40.721Z,24.60
2023-06-07T00:30:40.746Z,24.60
2023-06-07T00:31:40.765Z,24.60
2023-06-07T00:32:40.772Z,24.60
2023-06-07T00:33:40.794Z,24.59
2023-06-07T00:34:40.848Z,24.59
2023-06-07T00:35:40.900Z,24.60
2023-06-07T00:36:40.945Z,24.59
2023-06-07T00:37:41.019Z,24.59
2023-06-07T00:38:41.060Z,24.59
2023-06-07T00:39:41.104Z,24.59
2023-06-07T00:40:41.163Z,24.59
2023-06-07T00:41:41.207Z,24.58
2023-06-07T00:42:41.256Z,24.58
2023-06-07T00:43:41.309Z,24.59
2023-06-07T00:44:41.370Z,24.58
2023-06-07T00:45:41.414Z,24.58
2023-06-07T00:46:41.467Z,24.58
2023-06-07T00:47:41.629Z,24.59
2023-06-07T00:48:41.799Z,24.58
2023-06-07T00:49:41.637Z,24.58
2023-06-07T00:50:41.696Z,24.58
2023-06-07T00:51:41.743Z,24.58
2023-06-07T00:52:41.804Z,24.58
2023-06-07T00:53:41.883Z,24.58
2023-06-07T00:54:41.905Z,24.57
2023-06-07T00:55:41.961Z,24.57
2023-06-07T00:56:42.019Z,24.57
2023-06-07T00:57:42.122Z,24.57
2023-06-07T00:58:42.132Z,24.56
2023-06-07T00:59:42.186Z,24.57
2023-06-07T01:00:42.252Z,24.56
2023-06-07T01:01:42.335Z,24.57
2023-06-07T01:02:42.453Z,24.56
2023-06-07T01:03:42.539Z,24.57
2023-06-07T01:04:42.474Z,24.57
2023-06-07T01:05:42.609Z,24.56
2023-06-07T01:06:42.588Z,24.57
2023-06-07T01:07:42.644Z,24.57
2023-06-07T01:08:42.742Z,24.56
2023-06-07T01:09:42.755Z,24.56
2023-06-07T01:10:42.811Z,24.56
2023-06-07T01:11:42.862Z,24.57
2023-06-07T01:12:42.937Z,24.56
2023-06-07T01:13:43.019Z,24.57
2023-06-07T01:14:44.616Z,24.56
2023-06-07T01:15:43.080Z,24.56
2023-06-07T01:16:43.166Z,24.56
2023-06-07T01:17:43.201Z,24.56
2023-06-07T01:18:43.241Z,24.56
2023-06-07T01:19:43.290Z,24.56
2023-06-07T01:20:43.346Z,24.56
2023-06-07T01:21:43.402Z,24.57
2023-06-07T01:22:43.462Z,24.56
2023-06-07T01:23:43.539Z,24.56
2023-06-07T01:24:43.600Z,24.55
2023-06-07T01:25:43.613Z,24.56
2023-06-07T01:26:43.666Z,24.56
2023-06-07T01:27:43.720Z,24.55
2023-06-07T01:28:43.773Z,24.56
2023-06-07T01:29:43.827Z,24.55
2023-06-07T01:30:43.901Z,24.55
2023-06-07T01:31:44.019Z,24.55
2023-06-07T01:32:44.048Z,24.56
2023-06-07T01:33:44.060Z,24.55
2023-06-07T01:34:44.113Z,24.55
2023-06-07T01:35:44.168Z,24.55
2023-06-07T01:36:44.220Z,24.55
2023-06-07T01:37:44.276Z,24.55
2023-06-07T01:38:44.321Z,24.55
2023-06-07T01:39:44.376Z,24.55
2023-06-07T01:40:44.434Z,24.55
2023-06-07T01:41:44.489Z,24.54
2023-06-07T01:42:44.556Z,24.54
2023-06-07T01:43:44.596Z,24.55
2023-06-07T01:44:44.723Z,24.54
2023-06-07T01:45:44.798Z,24.55
2023-06-07T01:46:44.770Z,24.54
2023-06-07T01:47:44.832Z,24.54
2023-06-07T01:48:44.880Z,24.54
2023-06-07T01:49:44.929Z,24.54
2023-06-07T01:50:45.005Z,24.54
2023-06-07T01:51:45.040Z,24.54
2023-06-07T01:52:45.100Z,24.54
2023-06-07T01:53:45.160Z,24.54
2023-06-07T01:54:45.205Z,24.53
2023-06-07T01:55:45.292Z,24.53
2023-06-07T01:56:45.334Z,24.53
2023-06-07T01:57:45.388Z,24.54
2023-06-07T01:58:45.445Z,24.53
2023-06-07T01:59:45.515Z,24.53
2023-06-07T02:00:45.574Z,24.53
2023-06-07T02:01:45.700Z,24.53
2023-06-07T02:02:45.695Z,24.53
2023-06-07T02:03:45.787Z,24.53
2023-06-07T02:04:45.792Z,24.53
2023-06-07T02:05:45.852Z,24.53
2023-06-07T02:06:45.906Z,24.53
2023-06-07T02:07:45.971Z,24.53
2023-06-07T02:08:46.005Z,24.52
2023-06-07T02:09:46.068Z,24.52
2023-06-07T02:10:46.109Z,24.51
2023-06-07T02:11:46.165Z,24.52
2023-06-07T02:12:46.228Z,24.52
2023-06-07T02:13:46.283Z,24.51
2023-06-07T02:14:46.333Z,24.52
2023-06-07T02:15:46.407Z,24.51
2023-06-07T02:16:46.520Z,24.52
2023-06-07T02:17:46.534Z,24.52
2023-06-07T02:18:46.561Z,24.52
2023-06-07T02:19:46.620Z,24.51
2023-06-07T02:20:46.688Z,24.52
2023-06-07T02:21:46.748Z,24.51
2023-06-07T02:22:46.809Z,24.51
2023-06-07T02:23:46.914Z,24.51
2023-06-07T02:24:46.918Z,24.51
2023-06-07T02:25:46.977Z,24.51
2023-06-07T02:26:47.040Z,24.51
2023-06-07T02:27:47.092Z,24.50
2023-06-07T02:28:47.142Z,24.51
2023-06-07T02:29:47.195Z,24.51
2023-06-07T02:30:47.263Z,24.50
2023-06-07T02:31:47.500Z,24.50
2023-06-07T02:32:47.428Z,24.50
2023-06-07T02:33:47.445Z,24.50
2023-06-07T02:34:47.504Z,24.50
2023-06-07T02:35:47.569Z,24.50
2023-06-07T02:36:47.619Z,24.51
2023-06-07T02:37:47.683Z,24.50
2023-06-07T02:38:47.733Z,24.50
2023-06-07T02:39:47.800Z,24.50
2023-06-07T02:40:47.848Z,24.50
2023-06-07T02:41:47.966Z,24.49
2023-06-07T02:42:47.957Z,24.50
2023-06-07T02:43:48.015Z,24.50
2023-06-07T02:44:48.095Z,24.49
2023-06-07T02:45:48.143Z,24.50
2023-06-07T02:46:48.278Z,24.50
2023-06-07T02:47:48.299Z,24.50
2023-06-07T02:48:48.323Z,24.50
2023-06-07T02:49:48.394Z,24.50
2023-06-07T02:50:48.448Z,24.49
2023-06-07T02:51:48.503Z,24.49
2023-06-07T02:52:48.567Z,24.49
2023-06-07T02:53:48.642Z,24.49
2023-06-07T02:54:48.696Z,24.49
2023-06-07T02:55:48.769Z,24.50
2023-06-07T02:56:48.829Z,24.49
2023-06-07T02:57:48.871Z,24.49
2023-06-07T02:58:48.936Z,24.48
2023-06-07T02:59:48.997Z,24.49
2023-06-07T03:00:49.158Z,24.49
2023-06-07T03:01:49.112Z,24.48
2023-06-07T03:02:49.237Z,24.49
2023-06-07T03:03:49.216Z,24.49
2023-06-07T03:04:49.282Z,24.48
2023-06-07T03:05:49.356Z,24.48
2023-06-07T03:06:49.409Z,24.48
2023-06-07T03:07:49.450Z,24.48
2023-06-07T03:08:49.510Z,24.48
2023-06-07T03:09:49.562Z,24.48
2023-06-07T03:10:49.618Z,24.48
2023-06-07T03:11:49.686Z,24.48
2023-06-07T03:12:49.729Z,24.48
2023-06-07T03:13:49.779Z,24.48
2023-06-07T03:14:49.842Z,24.47
2023-06-07T03:15:49.910Z,24.48
2023-06-07T03:16:50.018Z,24.48
2023-06-07T03:17:50.036Z,24.48
2023-06-07T03:18:50.089Z,24.47
2023-06-07T03:19:50.160Z,24.48
2023-06-07T03:20:50.196Z,24.48
2023-06-07T03:21:50.264Z,24.47
2023-06-07T03:22:50.319Z,24.47
2023-06-07T03:23:50.426Z,24.46
2023-06-07T03:24:50.431Z,24.47
2023-06-07T03:25:50.571Z,24.47
2023-06-07T03:26:50.554Z,24.47
2023-06-07T03:27:50.611Z,24.47
2023-06-07T03:28:50.679Z,24.47
2023-06-07T03:29:50.736Z,24.46
2023-06-07T03:30:50.796Z,24.47
2023-06-07T03:31:50.860Z,24.47
2023-06-07T03:32:50.961Z,24.46
2023-06-07T03:33:50.975Z,24.47
2023-06-07T03:34:51.034Z,24.46
2023-06-07T03:35:51.098Z,24.46
2023-06-07T03:36:51.160Z,24.46
2023-06-07T03:37:51.214Z,24.46
2023-06-07T03:38:51.279Z,24.46
2023-06-07T03:39:51.336Z,24.46
2023-06-07T03:40:51.404Z,24.46
2023-06-07T03:41:51.486Z,24.46
2023-06-07T03:42:51.534Z,24.45
2023-06-07T03:43:51.593Z,24.46
2023-06-07T03:44:51.662Z,24.46
2023-06-07T03:45:51.722Z,24.46
2023-06-07T03:46:51.786Z,24.46
2023-06-07T03:47:51.898Z,24.46
2023-06-07T03:48:53.183Z,24.46
2023-06-07T03:49:51.966Z,24.46
2023-06-07T03:50:52.042Z,24.45
2023-06-07T03:51:52.122Z,24.45
2023-06-07T03:52:52.162Z,24.46
2023-06-07T03:53:52.229Z,24.45
2023-06-07T03:54:52.284Z,24.46
2023-06-07T03:55:52.355Z,24.45
2023-06-07T03:56:52.416Z,24.45
2023-06-07T03:57:52.487Z,24.45
2023-06-07T03:58:52.536Z,24.44
2023-06-07T03:59:52.599Z,24.45
2023-06-07T04:00:52.659Z,24.45
2023-06-07T04:01:52.736Z,24.44
2023-06-07T04:02:52.874Z,24.45
2023-06-07T04:03:52.997Z,24.45
2023-06-07T04:04:52.943Z,24.45
2023-06-07T04:05:52.966Z,24.45
2023-06-07T04:06:53.016Z,24.45
2023-06-07T04:07:53.076Z,24.44
2023-06-07T04:08:53.152Z,24.45
2023-06-07T04:09:53.192Z,24.44
2023-06-07T04:10:53.261Z,24.45
2023-06-07T04:11:53.317Z,24.44
2023-06-07T04:12:53.381Z,24.44
2023-06-07T04:13:53.449Z,24.44
2023-06-07T04:14:53.522Z,24.44
2023-06-07T04:15:53.590Z,24.44
2023-06-07T04:16:53.770Z,24.44
2023-06-07T04:17:53.707Z,24.44
2023-06-07T04:18:53.775Z,24.44
2023-06-07T04:19:53.835Z,24.44
2023-06-07T04:20:53.938Z,24.44
2023-06-07T04:21:53.987Z,24.44
2023-06-07T04:22:54.033Z,24.44
2023-06-07T04:23:54.133Z,24.44
2023-06-07T04:24:54.156Z,24.44
2023-06-07T04:25:54.221Z,24.44
2023-06-07T04:26:54.342Z,24.44
2023-06-07T04:27:54.342Z,24.45
2023-06-07T04:28:54.401Z,24.44
2023-06-07T04:29:54.457Z,24.45
2023-06-07T04:30:54.525Z,24.45
2023-06-07T04:31:54.590Z,24.46
2023-06-07T04:32:54.689Z,24.47
2023-06-07T04:33:54.720Z,24.47
2023-06-07T04:34:54.773Z,24.49
2023-06-07T04:35:54.846Z,24.49
2023-06-07T04:36:54.897Z,24.49
2023-06-07T04:37:54.965Z,24.49
2023-06-07T04:38:58.670Z,24.50
2023-06-07T04:39:55.034Z,24.51
2023-06-07T04:40:55.052Z,24.51
2023-06-07T04:41:55.061Z,24.52
2023-06-07T04:42:55.082Z,24.52
2023-06-07T04:43:55.089Z,24.52
2023-06-07T04:44:55.093Z,24.53
2023-06-07T04:45:55.320Z,24.53
2023-06-07T04:46:55.547Z,24.54
2023-06-07T04:47:55.135Z,24.53
2023-06-07T04:48:55.109Z,24.52
2023-06-07T04:49:55.115Z,24.52
2023-06-07T04:50:55.128Z,24.53
2023-06-07T04:51:55.194Z,24.53
2023-06-07T04:52:55.119Z,24.52
2023-06-07T04:53:55.129Z,24.52
2023-06-07T04:54:55.136Z,24.53
2023-06-07T04:55:55.157Z,24.53
2023-06-07T04:56:55.159Z,24.53
2023-06-07T04:57:55.197Z,24.54
2023-06-07T04:58:55.170Z,24.53
2023-06-07T04:59:55.169Z,24.53
2023-06-07T05:00:55.170Z,24.54
2023-06-07T05:01:55.213Z,24.54
2023-06-07T05:02:55.272Z,24.53
2023-06-07T05:03:55.248Z,24.53
2023-06-07T05:04:55.319Z,24.54
2023-06-07T05:05:55.358Z,24.53
2023-06-07T05:06:55.412Z,24.54
2023-06-07T05:07:55.462Z,24.55
2023-06-07T05:08:55.517Z,24.55
2023-06-07T05:09:55.608Z,24.55
2023-06-07T05:10:55.637Z,24.56
2023-06-07T05:11:55.677Z,24.56
2023-06-07T05:12:55.727Z,24.57
2023-06-07T05:13:55.778Z,24.58
2023-06-07T05:14:55.840Z,24.58
2023-06-07T05:15:55.962Z,24.59
2023-06-07T05:16:55.941Z,24.59
2023-06-07T05:17:56.173Z,24.59
2023-06-07T05:18:56.126Z,24.59
2023-06-07T05:19:56.104Z,24.60
2023-06-07T05:20:56.140Z,24.59
2023-06-07T05:21:56.250Z,24.60
2023-06-07T05:22:56.334Z,24.60
2023-06-07T05:23:56.332Z,24.60
2023-06-07T05:24:56.366Z,24.60
2023-06-07T05:25:56.430Z,24.60
2023-06-07T05:26:56.466Z,24.60
2023-06-07T05:28:11.868Z,24.60
2023-06-07T05:28:57.528Z,24.59
2023-06-07T05:29:56.542Z,24.57
2023-06-07T05:30:56.592Z,24.58
2023-06-07T05:31:56.660Z,24.61
2023-06-07T05:32:56.645Z,24.62
2023-06-07T05:33:56.578Z,24.65
2023-06-07T05:34:56.584Z,24.66
2023-06-07T05:35:56.579Z,24.68
2023-06-07T05:36:56.598Z,24.69
2023-06-07T05:37:56.601Z,24.70
2023-06-07T05:38:56.612Z,24.71
2023-06-07T05:39:56.622Z,24.72
2023-06-07T05:40:56.637Z,24.73
2023-06-07T05:41:56.629Z,24.73
2023-06-07T05:42:56.652Z,24.74
2023-06-07T05:43:56.659Z,24.75
2023-06-07T05:44:56.695Z,24.76
2023-06-07T05:45:56.825Z,24.77
2023-06-07T05:46:56.899Z,24.77
2023-06-07T05:47:56.845Z,24.78
2023-06-07T05:48:56.845Z,24.79
2023-06-07T05:49:56.895Z,24.79
2023-06-07T05:50:56.927Z,24.80
2023-06-07T05:51:56.970Z,24.81
2023-06-07T05:52:57.000Z,24.81
2023-06-07T05:53:57.039Z,24.82
2023-06-07T05:54:57.080Z,24.83
2023-06-07T05:55:57.110Z,24.85
2023-06-07T05:56:57.152Z,24.85
2023-06-07T05:57:57.182Z,24.87
2023-06-07T05:58:57.215Z,24.87
2023-06-07T05:59:57.253Z,24.88
2023-06-07T06:00:57.282Z,24.89
2023-06-07T06:01:57.559Z,24.90
2023-06-07T06:02:57.433Z,24.91
2023-06-07T06:03:57.377Z,24.91
2023-06-07T06:04:57.451Z,24.91
2023-06-07T06:05:57.452Z,24.89
2023-06-07T06:06:57.476Z,24.86
2023-06-07T06:07:57.522Z,24.83
2023-06-07T06:08:57.551Z,24.81
2023-06-07T06:09:57.599Z,24.79
2023-06-07T06:10:57.642Z,24.77
2023-06-07T06:11:57.702Z,24.74
2023-06-07T06:12:57.742Z,24.72
2023-06-07T06:13:57.777Z,24.69
2023-06-07T06:14:57.828Z,24.68
2023-06-07T06:15:57.853Z,24.66
2023-06-07T06:16:57.921Z,24.64
2023-06-07T06:17:57.978Z,24.64
2023-06-07T06:18:57.996Z,24.64
2023-06-07T06:19:58.037Z,24.63
2023-06-07T06:20:58.073Z,24.62
2023-06-07T06:21:58.129Z,24.59
2023-06-07T06:22:59.128Z,24.59
2023-06-07T06:23:58.141Z,24.61
2023-06-07T06:24:58.159Z,24.63
2023-06-07T06:25:58.155Z,24.67
2023-06-07T06:26:58.152Z,24.70
2023-06-07T06:27:58.242Z,24.73
2023-06-07T06:28:58.147Z,24.76
2023-06-07T06:29:58.132Z,24.81
2023-06-07T06:30:58.189Z,24.85
2023-06-07T06:31:58.140Z,24.89
2023-06-07T06:32:59.139Z,24.93
2023-06-07T06:33:58.274Z,24.98
2023-06-07T06:34:58.150Z,25.03
2023-06-07T06:35:58.740Z,25.07
2023-06-07T06:36:58.152Z,25.10
2023-06-07T06:37:58.822Z,25.14
2023-06-07T06:38:58.144Z,25.17
2023-06-07T06:39:58.160Z,25.19
2023-06-07T06:40:58.162Z,25.22
2023-06-07T06:41:58.148Z,25.25
2023-06-07T06:42:58.143Z,25.26
2023-06-07T06:43:58.138Z,25.29
2023-06-07T06:44:58.193Z,25.31
2023-06-07T06:45:58.146Z,25.31
2023-06-07T06:46:58.176Z,25.31
2023-06-07T06:47:58.185Z,25.32
2023-06-07T06:49:11.531Z,25.31
2023-06-07T06:49:59.222Z,25.31
2023-06-07T06:50:58.131Z,25.32
2023-06-07T06:51:58.140Z,25.33
2023-06-07T06:52:58.115Z,25.34
2023-06-07T06:53:58.740Z,25.36
2023-06-07T06:54:58.104Z,25.38
2023-06-07T06:55:58.094Z,25.40
2023-06-07T06:56:58.104Z,25.40
2023-06-07T06:57:58.073Z,25.42
2023-06-07T06:58:58.083Z,25.43
2023-06-07T06:59:58.073Z,25.44
2023-06-07T07:00:58.071Z,25.45
2023-06-07T07:01:58.213Z,25.45
2023-06-07T07:02:58.092Z,25.48
2023-06-07T07:03:58.109Z,25.49
2023-06-07T07:04:58.052Z,25.50
2023-06-07T07:05:58.074Z,25.52
2023-06-07T07:06:58.829Z,25.52
2023-06-07T07:07:58.052Z,25.53
2023-06-07T07:08:58.036Z,25.54
2023-06-07T07:09:58.035Z,25.55
2023-06-07T07:10:58.022Z,25.56
2023-06-07T07:11:58.017Z,25.57
2023-06-07T07:12:58.826Z,25.58
2023-06-07T07:13:57.995Z,25.59
2023-06-07T07:14:57.987Z,25.60
2023-06-07T07:15:58.022Z,25.61
2023-06-07T07:16:58.007Z,25.62
2023-06-07T07:17:58.018Z,25.60
2023-06-07T07:18:57.973Z,25.61
2023-06-07T07:19:58.073Z,25.60
2023-06-07T07:20:58.016Z,25.59
2023-06-07T07:21:58.089Z,25.57
2023-06-07T07:22:58.097Z,25.57
2023-06-07T07:23:58.161Z,25.56
2023-06-07T07:24:58.195Z,25.55
2023-06-07T07:25:58.216Z,25.54
2023-06-07T07:26:58.320Z,25.53
2023-06-07T07:27:58.302Z,25.51
2023-06-07T07:28:58.315Z,25.50
2023-06-07T07:29:58.314Z,25.49
2023-06-07T07:30:58.879Z,25.48
2023-06-07T07:31:58.850Z,25.47
2023-06-07T07:32:58.353Z,25.47
2023-06-07T07:33:58.331Z,25.45
2023-06-07T07:34:58.343Z,25.43
2023-06-07T07:35:58.321Z,25.43
2023-06-07T07:36:58.314Z,25.42
2023-06-07T07:37:58.836Z,25.41
2023-06-07T07:38:58.408Z,25.40
2023-06-07T07:39:58.331Z,25.39
2023-06-07T07:40:58.355Z,25.38
2023-06-07T07:41:58.330Z,25.37
2023-06-07T07:42:58.449Z,25.36
2023-06-07T07:43:58.356Z,25.36
2023-06-07T07:44:58.378Z,25.35
2023-06-07T07:45:58.377Z,25.34
2023-06-07T07:46:58.347Z,25.33
2023-06-07T07:47:58.386Z,25.33
2023-06-07T07:48:58.337Z,25.32
2023-06-07T07:49:59.269Z,25.31
2023-06-07T07:50:58.886Z,25.30
2023-06-07T07:51:58.364Z,25.30
2023-06-07T07:52:58.360Z,25.29
2023-06-07T07:53:58.885Z,25.29
2023-06-07T07:54:58.378Z,25.29
2023-06-07T07:55:58.379Z,25.29
2023-06-07T07:56:58.410Z,25.28
2023-06-07T07:57:58.403Z,25.28
2023-06-07T07:58:58.422Z,25.27
2023-06-07T07:59:58.405Z,25.27
2023-06-07T08:00:58.416Z,25.27
2023-06-07T08:01:58.419Z,25.26
2023-06-07T08:02:58.475Z,25.27
2023-06-07T08:03:58.517Z,25.26
2023-06-07T08:04:58.483Z,25.25
2023-06-07T08:05:58.463Z,25.26
2023-06-07T08:06:58.462Z,25.25
2023-06-07T08:07:58.453Z,25.25
2023-06-07T08:08:58.471Z,25.25
2023-06-07T08:09:58.544Z,25.24
2023-06-07T08:10:58.482Z,25.21
2023-06-07T08:11:58.506Z,25.20
2023-06-07T08:12:58.507Z,25.20
2023-06-07T08:13:58.519Z,25.21
2023-06-07T08:14:58.535Z,25.22
2023-06-07T08:15:58.582Z,25.20
2023-06-07T08:16:58.594Z,25.10
2023-06-07T08:17:58.630Z,25.07
2023-06-07T08:18:58.714Z,25.06
2023-06-07T08:19:58.704Z,25.06
2023-06-07T08:20:58.734Z,25.04
2023-06-07T08:21:58.778Z,25.03
2023-06-07T08:22:58.807Z,25.00
2023-06-07T08:23:58.883Z,25.00
2023-06-07T08:24:58.902Z,25.04
2023-06-07T08:25:59.053Z,25.06
2023-06-07T08:26:58.962Z,25.06
2023-06-07T08:27:58.990Z,25.07
2023-06-07T08:28:59.024Z,25.10
2023-06-07T08:29:59.051Z,25.14
2023-06-07T08:30:59.095Z,25.16
2023-06-07T08:31:59.157Z,25.20
2023-06-07T08:32:59.203Z,25.23
2023-06-07T08:33:59.124Z,25.25
2023-06-07T08:34:59.139Z,25.28
2023-06-07T08:35:59.139Z,25.31
2023-06-07T08:36:59.149Z,25.34
2023-06-07T08:37:59.150Z,25.36
2023-06-07T08:38:59.140Z,25.38
2023-06-07T08:39:59.140Z,25.39
2023-06-07T08:40:59.140Z,25.42
2023-06-07T08:41:59.151Z,25.44
2023-06-07T08:42:59.134Z,25.48
2023-06-07T08:43:59.140Z,25.51
2023-06-07T08:44:59.154Z,25.53
2023-06-07T08:45:59.192Z,25.55
2023-06-07T08:46:59.737Z,25.56
2023-06-07T08:47:59.196Z,25.58
2023-06-07T08:48:59.149Z,25.58
2023-06-07T08:49:59.127Z,25.59
2023-06-07T08:50:59.115Z,25.59
2023-06-07T08:52:14.013Z,25.60
2023-06-07T08:53:00.095Z,25.62
2023-06-07T08:53:59.088Z,25.63
2023-06-07T08:54:59.069Z,25.67
2023-06-07T08:55:59.070Z,25.69
2023-06-07T08:56:59.154Z,25.70
2023-06-07T08:57:59.147Z,25.70
2023-06-07T08:58:59.046Z,25.71
2023-06-07T08:59:59.038Z,25.72
2023-06-07T09:00:59.047Z,25.73
2023-06-07T09:01:59.057Z,25.75
2023-06-07T09:02:59.082Z,25.76
2023-06-07T09:03:59.029Z,25.77
2023-06-07T09:04:58.979Z,25.79
2023-06-07T09:05:59.031Z,25.82
2023-06-07T09:06:59.088Z,25.83
2023-06-07T09:07:59.151Z,25.86
2023-06-07T09:08:59.219Z,25.88
2023-06-07T09:09:59.275Z,25.90
2023-06-07T09:10:59.332Z,25.91
2023-06-07T09:11:59.366Z,25.91
2023-06-07T09:12:59.412Z,25.92
2023-06-07T09:13:59.485Z,25.93
2023-06-07T09:14:59.529Z,25.95
2023-06-07T09:15:59.564Z,25.96
2023-06-07T09:16:59.775Z,25.98
2023-06-07T09:18:00.032Z,26.00
2023-06-07T09:18:59.717Z,25.99
2023-06-07T09:19:59.762Z,25.96
2023-06-07T09:20:59.759Z,25.93
2023-06-07T09:21:59.757Z,25.89
2023-06-07T09:22:59.767Z,25.87
2023-06-07T09:23:59.894Z,25.89
2023-06-07T09:24:59.785Z,25.91
2023-06-07T09:25:59.780Z,25.94
2023-06-07T09:26:59.814Z,25.97
2023-06-07T09:27:59.851Z,25.99
2023-06-07T09:28:59.890Z,26.00
2023-06-07T09:29:59.935Z,26.00
2023-06-07T09:31:00.006Z,25.99
2023-06-07T09:32:00.075Z,26.00
2023-06-07T09:33:00.220Z,26.02
2023-06-07T09:34:00.181Z,26.04
2023-06-07T09:35:00.236Z,26.05
2023-06-07T09:36:00.316Z,26.06
2023-06-07T09:37:00.478Z,26.07
2023-06-07T09:38:00.433Z,26.06
2023-06-07T09:39:00.425Z,26.07
2023-06-07T09:40:00.496Z,26.08
2023-06-07T09:41:03.010Z,26.09
2023-06-07T09:42:00.530Z,26.09
2023-06-07T09:43:00.724Z,26.11
2023-06-07T09:44:00.515Z,26.12
2023-06-07T09:45:00.504Z,26.13
2023-06-07T09:46:00.562Z,26.15
2023-06-07T09:47:04.062Z,26.18
2023-06-07T09:48:00.466Z,26.18
2023-06-07T09:49:00.433Z,26.22
2023-06-07T09:50:00.415Z,26.23
2023-06-07T09:51:00.434Z,26.25
2023-06-07T09:52:00.435Z,26.25
2023-06-07T09:53:00.380Z,26.27
2023-06-07T09:54:00.320Z,26.26
2023-06-07T09:55:00.339Z,26.28
2023-06-07T09:56:00.276Z,26.29
2023-06-07T09:57:00.307Z,26.31
2023-06-07T09:58:00.325Z,26.31
2023-06-07T09:59:00.256Z,26.32
2023-06-07T10:00:00.316Z,26.33
2023-06-07T10:01:00.230Z,26.34
2023-06-07T10:02:00.176Z,26.35
2023-06-07T10:03:00.153Z,26.36
2023-06-07T10:04:00.255Z,26.36
2023-06-07T10:05:00.176Z,26.36
2023-06-07T10:06:00.110Z,26.38
2023-06-07T10:07:00.144Z,26.37
2023-06-07T10:08:00.128Z,26.38
2023-06-07T10:09:00.068Z,26.38
2023-06-07T10:10:00.090Z,26.37
2023-06-07T10:11:00.096Z,26.33
2023-06-07T10:12:00.121Z,26.34
2023-06-07T10:13:00.138Z,26.28
2023-06-07T10:14:00.164Z,26.25
2023-06-07T10:15:00.179Z,26.27
2023-06-07T10:16:00.269Z,26.27
2023-06-07T10:17:00.304Z,26.29
2023-06-07T10:18:01.988Z,26.31
2023-06-07T10:19:00.341Z,26.35
2023-06-07T10:20:00.469Z,26.38
2023-06-07T10:21:00.397Z,26.41
2023-06-07T10:22:00.447Z,26.43
2023-06-07T10:23:00.602Z,26.45
2023-06-07T10:24:02.502Z,26.48
2023-06-07T10:25:00.548Z,26.50
2023-06-07T10:26:01.507Z,26.51
2023-06-07T10:27:00.481Z,26.52
2023-06-07T10:28:00.490Z,26.53
2023-06-07T10:29:00.435Z,26.53
2023-06-07T10:30:00.426Z,26.52
2023-06-07T10:31:00.410Z,26.51
2023-06-07T10:32:00.498Z,26.51
2023-06-07T10:33:00.480Z,26.51
2023-06-07T10:34:00.444Z,26.53
2023-06-07T10:35:00.344Z,26.53
2023-06-07T10:36:00.326Z,26.54
2023-06-07T10:37:00.376Z,26.55
2023-06-07T10:38:00.303Z,26.56
2023-06-07T10:39:00.296Z,26.56
2023-06-07T10:40:00.404Z,26.56
2023-06-07T10:41:00.326Z,26.57
2023-06-07T10:42:00.379Z,26.58
2023-06-07T10:43:00.390Z,26.58
2023-06-07T10:44:00.403Z,26.58
2023-06-07T10:45:00.498Z,26.59
2023-06-07T10:46:00.505Z,26.60
2023-06-07T10:47:00.519Z,26.61
2023-06-07T10:48:00.515Z,26.61
2023-06-07T10:49:00.555Z,26.62
2023-06-07T10:50:00.517Z,26.62
2023-06-07T10:51:00.513Z,26.63
2023-06-07T10:52:00.832Z,26.64
2023-06-07T10:53:00.550Z,26.65
2023-06-07T10:54:00.566Z,26.66
2023-06-07T10:55:00.593Z,26.66
2023-06-07T10:56:00.590Z,26.66
2023-06-07T10:57:00.645Z,26.66
2023-06-07T10:58:00.672Z,26.67
2023-06-07T10:59:00.657Z,26.67
2023-06-07T11:00:00.655Z,26.68
2023-06-07T11:01:00.715Z,26.67
2023-06-07T11:02:00.753Z,26.67
2023-06-07T11:03:00.772Z,26.67
2023-06-07T11:04:00.967Z,26.67
2023-06-07T11:05:01.051Z,26.67
2023-06-07T11:06:00.888Z,26.67
2023-06-07T11:07:00.848Z,26.64
2023-06-07T11:08:00.793Z,26.63
2023-06-07T11:09:00.795Z,26.63
2023-06-07T11:10:00.837Z,26.63
2023-06-07T11:11:00.926Z,26.62
2023-06-07T11:12:00.918Z,26.59
2023-06-07T11:13:00.851Z,26.56
2023-06-07T11:14:00.850Z,26.52
2023-06-07T11:15:00.873Z,26.48
2023-06-07T11:16:00.873Z,26.43
2023-06-07T11:17:00.978Z,26.38
2023-06-07T11:18:00.894Z,26.35
2023-06-07T11:19:00.766Z,26.32
2023-06-07T11:20:01.015Z,26.28
2023-06-07T11:21:00.815Z,26.24
2023-06-07T11:22:00.821Z,26.20
2023-06-07T11:23:00.709Z,26.18
2023-06-07T11:24:00.788Z,26.16
2023-06-07T11:25:00.678Z,26.15
2023-06-07T11:26:00.834Z,26.13
2023-06-07T11:27:00.737Z,26.12
2023-06-07T11:28:00.789Z,26.11
2023-06-07T11:29:00.834Z,26.11
2023-06-07T11:30:00.853Z,26.10
2023-06-07T11:31:00.913Z,26.10
2023-06-07T11:32:01.038Z,26.08
2023-06-07T11:33:01.028Z,26.08
2023-06-07T11:34:01.060Z,26.07
2023-06-07T11:35:01.125Z,26.07
2023-06-07T11:36:01.164Z,26.07
2023-06-07T11:37:01.220Z,26.07
2023-06-07T11:38:01.260Z,26.06
2023-06-07T11:39:01.324Z,26.05
2023-06-07T11:40:01.435Z,26.06
2023-06-07T11:41:01.437Z,26.05
2023-06-07T11:42:01.500Z,26.05
2023-06-07T11:43:01.543Z,26.05
2023-06-07T11:44:01.584Z,26.04
2023-06-07T11:45:01.650Z,26.04
2023-06-07T11:46:01.743Z,26.04
2023-06-07T11:47:01.794Z,26.03
2023-06-07T11:48:01.918Z,26.03
2023-06-07T11:49:01.983Z,26.03
2023-06-07T11:50:01.846Z,26.02
2023-06-07T11:51:01.850Z,26.02
2023-06-07T11:52:01.809Z,26.01
2023-06-07T11:53:01.784Z,26.01
2023-06-07T11:54:01.774Z,26.01
2023-06-07T11:55:01.758Z,26.00
2023-06-07T11:56:01.742Z,26.00
2023-06-07T11:57:01.723Z,26.00
2023-06-07T11:58:01.697Z,25.99
2023-06-07T11:59:01.678Z,25.99
2023-06-07T12:00:01.683Z,25.99
2023-06-07T12:01:01.745Z,25.99
2023-06-07T12:02:01.850Z,25.98
2023-06-07T12:03:02.030Z,25.98
2023-06-07T12:04:01.948Z,25.97
2023-06-07T12:05:01.925Z,25.97
2023-06-07T12:06:01.835Z,25.96
2023-06-07T12:07:01.827Z,25.96
2023-06-07T12:08:01.814Z,25.96
2023-06-07T12:09:01.813Z,25.96
2023-06-07T12:10:02.451Z,25.95
2023-06-07T12:11:01.880Z,25.95
2023-06-07T12:12:02.360Z,25.95
2023-06-07T12:13:01.915Z,25.94
2023-06-07T12:14:01.965Z,25.94
2023-06-07T12:15:01.971Z,25.94
2023-06-07T12:16:02.011Z,25.94
2023-06-07T12:17:02.105Z,25.94
2023-06-07T12:18:02.175Z,25.94
2023-06-07T12:19:02.176Z,25.93
2023-06-07T12:20:02.291Z,25.93
2023-06-07T12:21:02.252Z,25.93
2023-06-07T12:22:02.317Z,25.93
2023-06-07T12:23:02.362Z,25.93
2023-06-07T12:24:02.480Z,25.92
2023-06-07T12:25:02.479Z,25.92
2023-06-07T12:26:02.688Z,25.91
2023-06-07T12:27:02.593Z,25.92
2023-06-07T12:28:02.669Z,25.91
2023-06-07T12:29:02.731Z,25.91
2023-06-07T12:30:03.062Z,25.91
2023-06-07T12:31:02.827Z,25.91
2023-06-07T12:32:02.875Z,25.91
2023-06-07T12:33:02.917Z,25.90
2023-06-07T12:34:02.986Z,25.90
2023-06-07T12:35:03.579Z,25.90
2023-06-07T12:36:03.039Z,25.90
2023-06-07T12:37:03.128Z,25.89
2023-06-07T12:38:03.157Z,25.90
2023-06-07T12:39:03.195Z,25.89
2023-06-07T12:40:03.258Z,25.89
2023-06-07T12:41:03.313Z,25.89
2023-06-07T12:42:03.287Z,25.89
2023-06-07T12:43:03.301Z,25.88
2023-06-07T12:44:03.335Z,25.88
2023-06-07T12:45:03.945Z,25.88
2023-06-07T12:46:03.414Z,25.88
2023-06-07T12:47:03.538Z,25.88
2023-06-07T12:48:03.543Z,25.88
2023-06-07T12:49:03.588Z,25.87
2023-06-07T12:50:03.618Z,25.86
2023-06-07T12:51:03.592Z,25.86
2023-06-07T12:52:03.675Z,25.86
2023-06-07T12:53:03.665Z,25.86